createdAt,value
2019-03-05T00:01:07.269Z,98708.86
2019-03-05T00:03:36.081Z,98710.28
2019-03-05T00:06:04.907Z,98714.70
2019-03-05T00:08:34.128Z,98716.38
2019-03-05T00:11:03.254Z,98716.12
2019-03-05T00:13:32.255Z,98705.57
2019-03-05T00:16:01.177Z,98701.61
2019-03-05T00:18:30.261Z,98705.67
2019-03-05T00:20:59.270Z,98703.50
2019-03-05T00:24:15.789Z,98698.33
2019-03-05T00:26:45.311Z,98700.60
2019-03-05T00:29:52.430Z,98708.61
2019-03-05T00:32:21.394Z,98703.34
2019-03-05T00:35:24.648Z,98707.76
2019-03-05T00:38:05.636Z,98711.71
2019-03-05T00:40:39.879Z,98691.22
2019-03-05T00:43:15.695Z,98689.89
2019-03-05T00:46:24.567Z,98689.61
2019-03-05T00:49:30.811Z,98698.11
2019-03-05T00:52:53.496Z,98688.39
2019-03-05T00:55:56.092Z,98690.20
2019-03-05T00:58:41.596Z,98699.89
2019-03-05T01:01:35.971Z,98696.89
2019-03-05T01:04:23.966Z,98697.36
2019-03-05T01:06:53.101Z,98704.31
2019-03-05T01:09:23.161Z,98693.04
2019-03-05T01:11:52.113Z,98692.55
2019-03-05T01:14:21.873Z,98700.45
2019-03-05T01:16:50.993Z,98695.67
2019-03-05T01:19:20.001Z,98719.50
2019-03-05T01:21:49.066Z,98715.05
2019-03-05T01:24:18.165Z,98708.46
2019-03-05T01:26:47.194Z,98721.18
2019-03-05T01:29:16.153Z,98718.38
2019-03-05T01:32:04.281Z,98728.53
2019-03-05T01:35:04.530Z,98729.03
2019-03-05T01:37:33.568Z,98727.31
2019-03-05T01:40:21.228Z,98740.13
2019-03-05T01:42:50.366Z,98729.95
2019-03-05T01:45:19.230Z,98732.69
2019-03-05T01:47:48.276Z,98725.27
2019-03-05T01:50:17.176Z,98734.59
2019-03-05T01:52:46.309Z,98738.55
2019-03-05T01:55:15.309Z,98738.06
2019-03-05T01:57:44.270Z,98750.02
2019-03-05T02:00:13.412Z,98745.61
2019-03-05T02:02:42.372Z,98755.59
2019-03-05T02:05:11.625Z,98758.42
2019-03-05T02:07:40.427Z,98761.52
2019-03-05T02:10:17.568Z,98755.39
2019-03-05T02:12:46.695Z,98759.84
2019-03-05T02:15:15.551Z,98760.76
2019-03-05T02:17:44.536Z,98752.95
2019-03-05T02:20:40.032Z,98752.95
2019-03-05T02:23:19.505Z,98752.59
2019-03-05T02:25:56.401Z,98749.48
2019-03-05T02:28:43.837Z,98758.81
2019-03-05T02:31:57.211Z,98760.13
2019-03-05T02:34:56.080Z,98759.64
2019-03-05T02:37:36.143Z,98758.06
2019-03-05T02:40:42.895Z,98757.20
2019-03-05T02:43:34.023Z,98754.56
2019-03-05T02:46:52.696Z,98759.11
2019-03-05T02:49:38.412Z,98749.03
2019-03-05T02:53:00.571Z,98754.39
2019-03-05T02:55:58.444Z,98747.34
2019-03-05T02:58:25.943Z,98761.45
2019-03-05T03:01:15.094Z,98749.22
2019-03-05T03:03:47.045Z,98748.86
2019-03-05T03:06:22.062Z,98752.81
2019-03-05T03:08:57.573Z,98755.91
2019-03-05T03:11:26.359Z,98751.00
2019-03-05T03:13:55.252Z,98748.01
2019-03-05T03:16:24.292Z,98751.41
2019-03-05T03:18:53.173Z,98755.05
2019-03-05T03:21:22.410Z,98741.42
2019-03-05T03:23:51.412Z,98754.79
2019-03-05T03:26:20.448Z,98748.77
2019-03-05T03:28:49.501Z,98748.77
2019-03-05T03:31:18.413Z,98757.98
2019-03-05T03:33:47.458Z,98754.12
2019-03-05T03:36:16.461Z,98756.67
2019-03-05T03:38:45.467Z,98762.89
2019-03-05T03:41:14.483Z,98764.56
2019-03-05T03:43:43.400Z,98761.58
2019-03-05T03:46:12.194Z,98765.16
2019-03-05T03:48:41.213Z,98769.58
2019-03-05T03:51:10.502Z,98767.89
2019-03-05T03:56:27.299Z,98775.04
2019-03-05T03:58:56.545Z,98776.81
2019-03-05T04:01:25.484Z,98788.30
2019-03-05T04:03:54.567Z,98783.59
2019-03-05T04:06:23.544Z,98790.58
2019-03-05T04:08:52.690Z,98794.13
2019-03-05T04:11:21.553Z,98799.50
2019-03-05T04:13:50.346Z,98796.86
2019-03-05T04:16:19.323Z,98796.50
2019-03-05T04:18:48.175Z,98801.77
2019-03-05T04:21:19.842Z,98815.40
2019-03-05T04:23:47.783Z,98813.62
2019-03-05T04:26:16.756Z,98820.77
2019-03-05T04:28:45.749Z,98814.17
2019-03-05T04:31:14.765Z,98835.34
2019-03-05T04:33:43.748Z,98843.73
2019-03-05T04:36:12.760Z,98839.39
2019-03-05T04:38:41.820Z,98856.52
2019-03-05T04:41:10.780Z,98855.29
2019-03-05T04:43:39.890Z,98860.66
2019-03-05T04:46:27.697Z,98854.06
2019-03-05T04:49:33.666Z,98856.34
2019-03-05T04:52:09.244Z,98859.83
2019-03-05T04:54:38.103Z,98865.28
2019-03-05T04:57:06.930Z,98866.97
2019-03-05T04:59:35.941Z,98874.41
2019-03-05T05:02:04.873Z,98872.23
2019-03-05T05:04:33.925Z,98875.91
2019-03-05T05:07:02.889Z,98879.00
2019-03-05T05:09:33.451Z,98876.46
2019-03-05T05:12:02.363Z,98880.41
2019-03-05T05:14:31.229Z,98884.00
2019-03-05T05:17:00.013Z,98885.31
2019-03-05T05:19:28.912Z,98886.63
2019-03-05T05:21:57.769Z,98885.31
2019-03-05T05:24:27.012Z,98878.33
2019-03-05T05:26:56.081Z,98892.36
2019-03-05T05:29:25.048Z,98888.87
2019-03-05T05:31:54.009Z,98896.31
2019-03-05T05:34:22.881Z,98899.80
2019-03-05T05:36:51.870Z,98901.03
2019-03-05T05:40:12.565Z,98892.17
2019-03-05T05:42:41.621Z,98888.59
2019-03-05T05:45:14.096Z,98899.03
2019-03-05T05:47:43.174Z,98892.36
2019-03-05T05:50:12.185Z,98912.88
2019-03-05T05:52:41.187Z,98912.59
2019-03-05T05:55:10.215Z,98912.05
2019-03-05T05:57:39.212Z,98904.97
2019-03-05T06:00:10.345Z,98921.17
2019-03-05T06:02:39.189Z,98924.17
2019-03-05T06:05:08.296Z,98916.08
2019-03-05T06:07:37.265Z,98907.13
2019-03-05T06:10:07.270Z,98908.27
2019-03-05T06:12:36.198Z,98912.52
2019-03-05T06:15:05.372Z,98918.62
2019-03-05T06:17:34.395Z,98925.11
2019-03-05T06:20:03.409Z,98930.19
2019-03-05T06:22:32.640Z,98933.13
2019-03-05T06:25:01.422Z,98922.59
2019-03-05T06:27:30.252Z,98943.09
2019-03-05T06:29:59.069Z,98945.62
2019-03-05T06:32:27.912Z,98945.53
2019-03-05T06:34:56.905Z,98950.71
2019-03-05T06:37:25.905Z,98948.94
2019-03-05T06:39:54.861Z,98948.84
2019-03-05T06:42:24.354Z,98944.50
2019-03-05T06:44:53.154Z,98954.76
2019-03-05T06:47:22.029Z,98947.34
2019-03-05T06:49:51.229Z,98936.13
2019-03-05T06:52:20.471Z,98962.10
2019-03-05T06:57:24.774Z,98959.91
2019-03-05T06:59:53.632Z,98967.27
2019-03-05T07:02:22.460Z,98965.53
2019-03-05T07:05:00.358Z,98969.81
2019-03-05T07:07:30.959Z,98960.73
2019-03-05T07:10:38.578Z,98970.30
2019-03-05T07:13:13.725Z,98965.06
2019-03-05T07:16:05.596Z,98975.58
2019-03-05T07:18:44.093Z,98968.57
2019-03-05T07:21:52.881Z,98976.19
2019-03-05T07:24:47.665Z,98976.84
2019-03-05T07:27:28.411Z,98978.88
2019-03-05T07:30:17.936Z,98980.86
2019-03-05T07:32:47.323Z,98985.67
2019-03-05T07:35:19.369Z,98987.00
2019-03-05T07:37:48.455Z,98986.50
2019-03-05T07:40:17.273Z,98988.37
2019-03-05T07:42:46.235Z,98985.27
2019-03-05T07:45:15.283Z,98991.77
2019-03-05T07:47:44.444Z,98989.13
2019-03-05T07:50:13.823Z,98989.13
2019-03-05T07:52:42.708Z,99004.13
2019-03-05T07:55:14.239Z,98995.34
2019-03-05T07:57:43.393Z,99002.70
2019-03-05T08:00:14.899Z,99000.91
2019-03-05T08:02:43.856Z,98992.59
2019-03-05T08:05:14.036Z,98984.41
2019-03-05T08:07:43.090Z,98983.55
2019-03-05T08:10:26.794Z,98996.30
2019-03-05T08:13:44.993Z,98997.16
2019-03-05T08:16:16.952Z,99001.48
2019-03-05T08:18:45.969Z,99000.31
2019-03-05T08:21:14.964Z,99002.39
2019-03-05T08:23:43.992Z,98996.14
2019-03-05T08:26:12.909Z,98996.81
2019-03-05T08:28:41.983Z,99011.69
2019-03-05T08:31:10.949Z,99014.34
2019-03-05T08:33:39.963Z,99023.44
2019-03-05T08:36:08.941Z,99041.37
2019-03-05T08:38:38.019Z,99031.22
2019-03-05T08:41:06.929Z,99037.55
2019-03-05T08:43:36.069Z,99037.30
2019-03-05T08:46:06.005Z,99027.95
2019-03-05T08:48:35.003Z,99029.88
2019-03-05T08:51:04.010Z,99039.67
2019-03-05T08:53:33.161Z,99043.38
2019-03-05T08:56:02.129Z,99075.06
2019-03-05T08:58:30.992Z,99080.91
2019-03-05T09:00:59.880Z,99080.15
2019-03-05T09:03:28.793Z,99077.14
2019-03-05T09:05:57.653Z,99078.56
2019-03-05T09:08:26.861Z,99091.86
2019-03-05T09:10:56.135Z,99085.00
2019-03-05T09:13:32.743Z,99087.64
2019-03-05T09:15:55.751Z,99084.14
2019-03-05T09:18:24.929Z,99086.58
2019-03-05T09:20:54.116Z,99078.92
2019-03-05T09:23:23.217Z,99094.87
2019-03-05T09:25:52.232Z,99085.89
2019-03-05T09:28:21.451Z,99099.86
2019-03-05T09:30:50.276Z,99088.24
2019-03-05T09:33:19.468Z,99092.00
2019-03-05T09:36:07.253Z,99091.67
2019-03-05T09:38:36.280Z,99094.77
2019-03-05T09:41:05.319Z,99092.48
2019-03-05T09:43:34.299Z,99091.80
2019-03-05T09:46:03.309Z,99090.87
2019-03-05T09:48:32.327Z,99082.44
2019-03-05T09:51:01.378Z,99093.22
2019-03-05T09:53:30.255Z,99100.62
2019-03-05T09:55:59.227Z,99093.16
2019-03-05T09:58:28.131Z,99095.80
2019-03-05T10:00:57.735Z,99100.98
2019-03-05T10:03:26.741Z,99090.11
2019-03-05T10:05:55.913Z,99086.80
2019-03-05T10:08:32.448Z,99095.81
2019-03-05T10:10:55.484Z,99103.44
2019-03-05T10:13:24.382Z,99104.30
2019-03-05T10:15:53.656Z,99112.13
2019-03-05T10:18:22.582Z,99114.31
2019-03-05T10:20:51.534Z,99127.11
2019-03-05T10:23:20.528Z,99127.05
2019-03-05T10:25:49.471Z,99122.72
2019-03-05T10:28:18.420Z,99127.83
2019-03-05T10:30:47.208Z,99127.14
2019-03-05T10:33:16.965Z,99130.45
2019-03-05T10:35:45.985Z,99134.58
2019-03-05T10:38:14.991Z,99142.20
2019-03-05T10:40:44.047Z,99138.05
2019-03-05T10:43:13.673Z,99138.44
2019-03-05T10:45:44.728Z,99142.47
2019-03-05T10:48:34.560Z,99144.05
2019-03-05T10:51:03.595Z,99127.50
2019-03-05T10:53:32.622Z,99138.73
2019-03-05T10:56:01.610Z,99141.19
2019-03-05T10:58:34.181Z,99147.40
2019-03-05T11:01:21.651Z,99151.55
2019-03-05T11:03:50.598Z,99152.95
2019-03-05T11:06:19.601Z,99163.22
2019-03-05T11:08:48.614Z,99183.45
2019-03-05T11:11:17.676Z,99172.64
2019-03-05T11:13:46.660Z,99178.30
2019-03-05T11:16:15.615Z,99181.95
2019-03-05T11:18:44.786Z,99204.45
2019-03-05T11:21:13.816Z,99173.00
2019-03-05T11:23:42.727Z,99176.29
2019-03-05T11:26:11.662Z,99170.42
2019-03-05T11:28:40.540Z,99170.13
2019-03-05T11:31:10.021Z,99173.49
2019-03-05T11:33:38.824Z,99181.40
2019-03-05T11:36:07.813Z,99182.62
2019-03-05T11:38:36.784Z,99192.14
2019-03-05T11:41:05.814Z,99192.28
2019-03-05T11:43:34.969Z,99198.44
2019-03-05T11:46:03.867Z,99193.25
2019-03-05T11:48:32.888Z,99197.58
2019-03-05T11:51:01.895Z,99192.17
2019-03-05T11:53:31.740Z,99199.98
2019-03-05T11:56:00.670Z,99200.41
2019-03-05T11:58:30.661Z,99203.38
2019-03-05T12:01:20.940Z,99195.36
2019-03-05T12:03:49.963Z,99203.63
2019-03-05T12:06:18.877Z,99208.57
2019-03-05T12:08:47.887Z,99218.31
2019-03-05T12:11:16.933Z,99220.60
2019-03-05T12:13:45.937Z,99222.24
2019-03-05T12:16:15.462Z,99219.02
2019-03-05T12:18:44.444Z,99221.92
2019-03-05T12:21:13.439Z,99228.08
2019-03-05T12:23:46.691Z,99226.05
2019-03-05T12:26:13.014Z,99231.63
2019-03-05T12:28:42.462Z,99225.83
2019-03-05T12:31:11.529Z,99229.59
2019-03-05T12:33:40.762Z,99234.20
2019-03-05T12:36:09.965Z,99222.64
2019-03-05T12:38:38.765Z,99236.28
2019-03-05T12:41:07.742Z,99227.02
2019-03-05T12:43:36.804Z,99247.45
2019-03-05T12:46:05.815Z,99239.87
2019-03-05T12:48:39.880Z,99243.38
2019-03-05T12:51:06.090Z,99246.77
2019-03-05T12:53:35.054Z,99248.67
2019-03-05T12:56:04.137Z,99250.86
2019-03-05T12:58:33.208Z,99262.89
2019-03-05T13:01:02.046Z,99249.86
2019-03-05T13:03:30.871Z,99259.34
2019-03-05T13:05:59.881Z,99260.38
2019-03-05T13:08:28.917Z,99257.22
2019-03-05T13:10:57.769Z,99259.87
2019-03-05T13:13:26.738Z,99256.72
2019-03-05T13:15:56.561Z,99265.63
2019-03-05T13:18:26.773Z,99264.98
2019-03-05T13:20:57.131Z,99271.64
2019-03-05T13:23:26.047Z,99272.58
2019-03-05T13:25:55.032Z,99272.84
2019-03-05T13:28:23.959Z,99283.08
2019-03-05T13:30:52.855Z,99278.45
2019-03-05T13:33:21.803Z,99287.47
2019-03-05T13:35:50.781Z,99291.53
2019-03-05T13:38:19.786Z,99294.75
2019-03-05T13:40:48.785Z,99299.68
2019-03-05T13:43:17.827Z,99300.05
2019-03-05T13:45:49.519Z,99300.14
2019-03-05T13:48:59.681Z,99304.11
2019-03-05T13:52:04.459Z,99304.97
2019-03-05T13:54:48.448Z,99301.61
2019-03-05T13:57:51.506Z,99303.04
2019-03-05T14:00:21.462Z,99314.85
2019-03-05T14:03:11.474Z,99319.39
2019-03-05T14:06:14.555Z,99320.71
2019-03-05T14:09:14.644Z,99316.94
2019-03-05T14:11:44.454Z,99320.09
2019-03-05T14:14:24.429Z,99321.02
2019-03-05T14:16:57.897Z,99307.22
2019-03-05T14:19:26.926Z,99312.47
2019-03-05T14:21:55.931Z,99305.28
2019-03-05T14:24:25.062Z,99306.50
2019-03-05T14:26:54.034Z,99321.53
2019-03-05T14:29:23.052Z,99330.79
2019-03-05T14:31:51.950Z,99330.79
2019-03-05T14:34:20.980Z,99344.33
2019-03-05T14:36:49.880Z,99335.68
2019-03-05T14:39:28.062Z,99341.16
2019-03-05T14:41:56.890Z,99331.59
2019-03-05T14:44:25.734Z,99323.91
2019-03-05T14:46:58.905Z,99323.95
2019-03-05T14:49:28.480Z,99329.91
2019-03-05T14:51:58.164Z,99331.98
2019-03-05T14:54:27.132Z,99340.12
2019-03-05T14:56:56.438Z,99349.08
2019-03-05T14:59:25.332Z,99351.98
2019-03-05T15:01:54.224Z,99355.50
2019-03-05T15:04:23.150Z,99363.23
2019-03-05T15:07:12.935Z,99351.47
2019-03-05T15:09:42.055Z,99354.30
2019-03-05T15:12:10.867Z,99353.59
2019-03-05T15:14:39.922Z,99358.12
2019-03-05T15:17:08.839Z,99362.64
2019-03-05T15:19:37.892Z,99374.71
2019-03-05T15:22:06.888Z,99365.80
2019-03-05T15:24:35.920Z,99363.84
2019-03-05T15:27:23.878Z,99371.36
2019-03-05T15:29:52.963Z,99377.05
2019-03-05T15:32:21.961Z,99377.91
2019-03-05T15:34:51.136Z,99381.45
2019-03-05T15:37:19.994Z,99386.19
2019-03-05T15:39:49.020Z,99393.65
2019-03-05T15:42:17.961Z,99383.05
2019-03-05T15:44:47.111Z,99380.33
2019-03-05T15:47:16.057Z,99385.00
2019-03-05T15:49:45.065Z,99380.86
2019-03-05T15:52:13.916Z,99384.95
2019-03-05T15:54:43.023Z,99392.63
2019-03-05T15:57:31.038Z,99393.16
2019-03-05T16:00:00.182Z,99390.95
2019-03-05T16:02:29.122Z,99396.17
2019-03-05T16:04:58.161Z,99398.87
2019-03-05T16:07:26.967Z,99403.38
2019-03-05T16:09:55.790Z,99410.45
2019-03-05T16:12:24.922Z,99406.21
2019-03-05T16:14:54.421Z,99400.95
2019-03-05T16:17:24.201Z,99406.32
2019-03-05T16:19:54.044Z,99416.49
2019-03-05T16:22:24.431Z,99422.72
2019-03-05T16:24:53.677Z,99419.63
2019-03-05T16:27:22.754Z,99422.59
2019-03-05T16:29:52.016Z,99430.86
2019-03-05T16:32:36.791Z,99435.26
2019-03-05T16:35:22.931Z,99447.39
2019-03-05T16:38:20.184Z,99446.84
2019-03-05T16:41:06.830Z,99460.41
2019-03-05T16:43:44.796Z,99463.09
2019-03-05T16:46:32.982Z,99467.37
2019-03-05T16:49:19.534Z,99472.88
2019-03-05T16:52:07.326Z,99478.95
2019-03-05T16:55:03.595Z,99480.21
2019-03-05T16:57:49.742Z,99482.30
2019-03-05T17:00:29.588Z,99486.64
2019-03-05T17:03:17.854Z,99498.39
2019-03-05T17:06:14.685Z,99496.91
2019-03-05T17:09:02.617Z,99502.86
2019-03-05T17:11:49.275Z,99504.95
2019-03-05T17:14:18.116Z,99510.08
2019-03-05T17:16:47.229Z,99511.59
2019-03-05T17:19:16.229Z,99520.69
2019-03-05T17:21:45.452Z,99528.83
2019-03-05T17:24:14.452Z,99528.16
2019-03-05T17:26:43.541Z,99526.66
2019-03-05T17:29:12.380Z,99533.84
2019-03-05T17:31:41.309Z,99536.67
2019-03-05T17:34:10.225Z,99543.48
2019-03-05T17:39:27.609Z,99544.73
2019-03-05T17:41:56.605Z,99550.67
2019-03-05T17:44:25.556Z,99555.20
2019-03-05T17:46:54.568Z,99560.59
2019-03-05T17:49:23.578Z,99564.28
2019-03-05T17:51:52.607Z,99568.44
2019-03-05T17:54:21.607Z,99572.96
2019-03-05T17:56:50.681Z,99575.42
2019-03-05T17:59:19.580Z,99585.15
2019-03-05T18:01:48.551Z,99588.84
2019-03-05T18:04:17.477Z,99587.70
2019-03-05T18:06:46.341Z,99598.38
2019-03-05T18:09:15.641Z,99603.39
2019-03-05T18:11:44.650Z,99610.09
2019-03-05T18:14:13.602Z,99608.09
2019-03-05T18:16:42.392Z,99607.33
2019-03-05T18:19:11.249Z,99614.52
2019-03-05T18:21:40.749Z,99617.81
2019-03-05T18:24:28.781Z,99625.75
2019-03-05T18:26:57.655Z,99624.97
2019-03-05T18:29:26.839Z,99635.82
2019-03-05T18:31:55.738Z,99639.42
2019-03-05T18:34:24.848Z,99636.95
2019-03-05T18:36:53.712Z,99637.05
2019-03-05T18:39:22.602Z,99647.80
2019-03-05T18:41:51.641Z,99647.42
2019-03-05T18:44:20.554Z,99658.92
2019-03-05T18:46:49.745Z,99649.84
2019-03-05T18:49:18.885Z,99656.55
2019-03-05T18:52:06.925Z,99654.48
2019-03-05T18:54:35.977Z,99657.64
2019-03-05T18:57:04.921Z,99657.81
2019-03-05T18:59:33.922Z,99658.86
2019-03-05T19:02:04.688Z,99658.53
2019-03-05T19:04:33.873Z,99661.67
2019-03-05T19:07:02.968Z,99674.48
2019-03-05T19:09:31.985Z,99672.42
2019-03-05T19:12:01.024Z,99668.63
2019-03-05T19:14:29.905Z,99673.55
2019-03-05T19:16:58.801Z,99673.23
2019-03-05T19:19:27.882Z,99677.77
2019-03-05T19:21:57.090Z,99680.96
2019-03-05T19:24:26.021Z,99686.25
2019-03-05T19:26:55.107Z,99692.94
2019-03-05T19:29:24.059Z,99690.47
2019-03-05T19:31:53.080Z,99694.89
2019-03-05T19:34:22.220Z,99693.66
2019-03-05T19:36:51.252Z,99698.20
2019-03-05T19:39:20.227Z,99699.69
2019-03-05T19:41:55.835Z,99699.77
2019-03-05T19:44:19.916Z,99704.73
2019-03-05T19:46:48.855Z,99699.08
2019-03-05T19:49:17.947Z,99700.56
2019-03-05T19:51:46.897Z,99707.71
2019-03-05T19:54:15.764Z,99702.14
2019-03-05T19:56:44.634Z,99706.19
2019-03-05T19:59:13.697Z,99705.41
2019-03-05T20:01:47.656Z,99707.77
2019-03-05T20:04:16.732Z,99706.15
2019-03-05T20:06:45.811Z,99715.07
2019-03-05T20:09:19.316Z,99717.25
2019-03-05T20:11:48.421Z,99717.80
2019-03-05T20:14:36.529Z,99722.70
2019-03-05T20:17:06.014Z,99726.75
2019-03-05T20:19:35.331Z,99730.88
2019-03-05T20:22:04.357Z,99735.30
2019-03-05T20:24:33.353Z,99734.06
2019-03-05T20:27:02.350Z,99728.94
2019-03-05T20:29:32.583Z,99732.61
2019-03-05T20:32:01.404Z,99730.34
2019-03-05T20:34:30.362Z,99745.03
2019-03-05T20:36:59.418Z,99742.09
2019-03-05T20:39:28.393Z,99743.88
2019-03-05T20:41:58.635Z,99750.09
2019-03-05T20:44:27.478Z,99751.50
2019-03-05T20:46:56.402Z,99741.97
2019-03-05T20:49:25.525Z,99740.81
2019-03-05T20:51:54.564Z,99743.91
2019-03-05T20:54:27.739Z,99751.04
2019-03-05T20:56:56.724Z,99758.21
2019-03-05T20:59:25.695Z,99757.42
2019-03-05T21:01:54.587Z,99754.70
2019-03-05T21:04:23.538Z,99767.13
2019-03-05T21:06:52.567Z,99765.88
2019-03-05T21:09:23.516Z,99765.97
2019-03-05T21:11:52.547Z,99769.09
2019-03-05T21:14:22.673Z,99767.77
2019-03-05T21:16:51.820Z,99775.69
2019-03-05T21:19:20.834Z,99783.77
2019-03-05T21:22:08.565Z,99785.16
2019-03-05T21:24:37.859Z,99786.56
2019-03-05T21:27:06.709Z,99785.41
2019-03-05T21:29:36.138Z,99787.55
2019-03-05T21:32:08.369Z,99789.52
2019-03-05T21:34:37.479Z,99791.67
2019-03-05T21:37:06.788Z,99790.51
2019-03-05T21:39:36.266Z,99790.05
2019-03-05T21:42:05.272Z,99794.55
2019-03-05T21:44:34.417Z,99794.33
2019-03-05T21:47:03.733Z,99796.88
2019-03-05T21:49:32.792Z,99790.66
2019-03-05T21:52:01.733Z,99797.05
2019-03-05T21:54:30.828Z,99799.38
2019-03-05T21:56:59.692Z,99793.61
2019-03-05T21:59:28.852Z,99792.70
2019-03-05T22:01:57.776Z,99796.33
2019-03-05T22:04:26.757Z,99799.05
2019-03-05T22:06:55.542Z,99793.02
2019-03-05T22:09:24.546Z,99796.56
2019-03-05T22:11:53.578Z,99792.76
2019-03-05T22:14:22.685Z,99797.58
2019-03-05T22:16:51.913Z,99797.20
2019-03-05T22:19:39.961Z,99795.96
2019-03-05T22:22:08.855Z,99797.28
2019-03-05T22:24:37.761Z,99800.45
2019-03-05T22:27:06.763Z,99809.30
2019-03-05T22:29:36.212Z,99807.98
2019-03-05T22:32:05.323Z,99809.84
2019-03-05T22:34:34.273Z,99813.41
2019-03-05T22:37:05.473Z,99810.37
2019-03-05T22:39:34.537Z,99809.91
2019-03-05T22:42:03.492Z,99800.80
2019-03-05T22:44:32.534Z,99812.29
2019-03-05T22:47:01.526Z,99809.73
2019-03-05T22:49:30.650Z,99815.91
2019-03-05T22:51:59.612Z,99821.67
2019-03-05T22:54:28.504Z,99814.74
2019-03-05T22:56:57.501Z,99817.45
2019-03-05T22:59:26.542Z,99821.03
2019-03-05T23:01:55.660Z,99823.75
2019-03-05T23:04:33.825Z,99822.05
2019-03-05T23:07:02.686Z,99819.41
2019-03-05T23:09:31.656Z,99822.12
2019-03-05T23:12:00.638Z,99823.03
2019-03-05T23:14:29.571Z,99818.77
2019-03-05T23:16:58.662Z,99818.39
2019-03-05T23:19:27.792Z,99822.50
2019-03-05T23:21:56.919Z,99827.77
2019-03-05T23:24:25.943Z,99824.80
2019-03-05T23:26:55.297Z,99827.92
2019-03-05T23:29:43.380Z,99825.28
2019-03-05T23:32:12.599Z,99831.08
2019-03-05T23:34:42.531Z,99827.28
2019-03-05T23:37:11.552Z,99831.38
2019-03-05T23:39:40.714Z,99836.42
2019-03-05T23:42:09.713Z,99835.86
2019-03-05T23:44:38.742Z,99835.86
2019-03-05T23:47:07.754Z,99832.46
2019-03-05T23:49:36.817Z,99836.88
2019-03-05T23:52:25.172Z,99832.05
2019-03-05T23:54:54.096Z,99833.44
2019-03-05T23:57:22.982Z,99825.06
2019-03-05T23:59:51.992Z,99823.67
